TimeEDT,TemperatureF,Dew PointF,Humidity,Sea Level PressureIn,VisibilityMPH,Wind Direction,Wind SpeedMPH,Gust SpeedMPH,PrecipitationIn,Events,Conditions,WindDirDegrees,DateUTC
12:00 AM,57.9,51.3,78,-9999,-9999.0,NNE,2.3,-,N/A,,Unknown,20,2012-10-28 04:00:00
1:00 AM,56.5,50.5,80,-9999,-9999.0,NE,2.3,-,N/A,,Unknown,40,2012-10-28 05:00:00
2:00 AM,55,50,76,,,NNE,2.3,,,,,30,2012-10-28 06:00:00
2:00 AM,55.2,49.6,81,-9999,-9999.0,NNE,2.3,-,N/A,,Unknown,30,2012-10-28 06:00:00
3:00 AM,52.9,48.7,86,-9999,-9999.0,NE,4.6,-,N/A,,Unknown,50,2012-10-28 07:00:00
4:00 AM,50.2,46.9,89,-9999,-9999.0,ENE,5.8,-,N/A,,Unknown,60,2012-10-28 08:00:00
5:00 AM,48.4,45.7,90,-9999,-9999.0,NE,5.8,-,N/A,,Unknown,50,2012-10-28 09:00:00
6:00 AM,48.2,45.3,90,-9999,-9999.0,NE,5.8,-,N/A,,Unknown,40,2012-10-28 10:00:00
7:00 AM,49.3,46.6,90,-9999,-9999.0,NE,6.9,-,N/A,,Unknown,50,2012-10-28 11:00:00
8:00 AM,50,47,84,,,NE,6.9,,,,,40,2012-10-28 12:00:00
8:00 AM,49.6,46.6,89,-9999,-9999.0,NE,6.9,-,N/A,,Unknown,40,2012-10-28 12:00:00
9:00 AM,51.1,46.8,85,-9999,-9999.0,NE,5.8,-,N/A,,Unknown,40,2012-10-28 13:00:00
10:00 AM,52.7,46.6,80,-9999,-9999.0,NE,6.9,-,N/A,,Unknown,40,2012-10-28 14:00:00
11:00 AM,56.3,48.0,74,-9999,-9999.0,ENE,3.5,-,N/A,,Unknown,60,2012-10-28 15:00:00
12:00 PM,56.8,44.4,63,-9999,-9999.0,NE,6.9,-,N/A,,Unknown,50,2012-10-28 16:00:00
1:00 PM,58.5,45.1,61,-9999,-9999.0,NE,3.5,-,N/A,,Unknown,50,2012-10-28 17:00:00
2:00 PM,59.2,45.7,61,-9999,-9999.0,NE,5.8,-,N/A,,Unknown,50,2012-10-28 18:00:00
3:00 PM,59.7,46.6,62,-9999,-9999.0,NE,9.2,-,N/A,,Unknown,50,2012-10-28 19:00:00
4:00 PM,59.4,46.8,63,-9999,-9999.0,ENE,6.9,-,N/A,,Unknown,60,2012-10-28 20:00:00
5:00 PM,57.2,46.4,67,-9999,-9999.0,NE,9.2,-,N/A,,Unknown,50,2012-10-28 21:00:00
6:00 PM,55.6,46.2,71,-9999,-9999.0,ENE,11.5,-,N/A,,Unknown,60,2012-10-28 22:00:00
7:00 PM,54.5,45.9,73,-9999,-9999.0,ENE,9.2,-,N/A,,Unknown,60,2012-10-28 23:00:00
8:00 PM,53,46,68,,,NE,9.2,,,,,50,2012-10-29 00:00:00
8:00 PM,53.1,45.5,75,-9999,-9999.0,NE,9.2,-,N/A,,Unknown,50,2012-10-29 00:00:00
9:00 PM,52.2,45.0,76,-9999,-9999.0,NE,12.7,-,N/A,,Unknown,50,2012-10-29 01:00:00
10:00 PM,50.5,43.7,77,-9999,-9999.0,NE,13.8,-,N/A,,Unknown,50,2012-10-29 02:00:00
11:00 PM,50.0,44.4,81,-9999,-9999.0,NE,8.1,-,N/A,,Unknown,50,2012-10-29 03:00:00